sensor_id;sensor_type;location;lat;lon;timestamp;temperature;humidity
54409;DHT22;40315;48.620;9.828;2023-03-31T00:02:26;7.20;99.90
54409;DHT22;40315;48.620;9.828;2023-03-31T00:04:54;7.30;99.90
54409;DHT22;40315;48.620;9.828;2023-03-31T00:07:24;7.20;99.90
54409;DHT22;40315;48.620;9.828;2023-03-31T00:09:51;7.20;99.90
54409;DHT22;40315;48.620;9.828;2023-03-31T00:12:22;7.20;99.90
54409;DHT22;40315;48.620;9.828;2023-03-31T00:14:51;7.20;99.90
54409;DHT22;40315;48.620;9.828;2023-03-31T00:17:20;7.90;99.90
54409;DHT22;40315;48.620;9.828;2023-03-31T00:19:49;7.20;99.90
54409;DHT22;40315;48.620;9.828;2023-03-31T00:22:16;7.10;99.90
54409;DHT22;40315;48.620;9.828;2023-03-31T00:24:46;7.10;99.90
54409;DHT22;40315;48.620;9.828;2023-03-31T00:27:16;7.10;99.90
54409;DHT22;40315;48.620;9.828;2023-03-31T00:29:43;7.20;99.90
54409;DHT22;40315;48.620;9.828;2023-03-31T00:32:10;7.20;99.90
54409;DHT22;40315;48.620;9.828;2023-03-31T00:34:39;7.20;99.90
54409;DHT22;40315;48.620;9.828;2023-03-31T00:37:10;7.60;99.90
54409;DHT22;40315;48.620;9.828;2023-03-31T00:39:40;7.30;99.90
54409;DHT22;40315;48.620;9.828;2023-03-31T00:42:09;7.30;99.90
54409;DHT22;40315;48.620;9.828;2023-03-31T00:47:46;7.30;99.90
54409;DHT22;40315;48.620;9.828;2023-03-31T00:50:15;7.30;99.90
54409;DHT22;40315;48.620;9.828;2023-03-31T00:52:48;7.40;99.90
54409;DHT22;40315;48.620;9.828;2023-03-31T00:55:22;7.40;99.90
54409;DHT22;40315;48.620;9.828;2023-03-31T00:57:51;7.50;99.90
54409;DHT22;40315;48.620;9.828;2023-03-31T01:00:20;7.50;99.90
54409;DHT22;40315;48.620;9.828;2023-03-31T01:03:15;7.50;99.90
54409;DHT22;40315;48.620;9.828;2023-03-31T01:05:45;7.50;99.90
54409;DHT22;40315;48.620;9.828;2023-03-31T01:08:18;7.50;99.90
54409;DHT22;40315;48.620;9.828;2023-03-31T01:10:51;7.60;99.90
54409;DHT22;40315;48.620;9.828;2023-03-31T01:13:21;7.50;99.90
54409;DHT22;40315;48.620;9.828;2023-03-31T01:15:49;7.60;99.90
54409;DHT22;40315;48.620;9.828;2023-03-31T01:18:19;7.60;99.90
54409;DHT22;40315;48.620;9.828;2023-03-31T01:21:03;7.70;99.90
54409;DHT22;40315;48.620;9.828;2023-03-31T01:24:03;7.70;99.90
54409;DHT22;40315;48.620;9.828;2023-03-31T01:26:55;8.30;99.90
54409;DHT22;40315;48.620;9.828;2023-03-31T01:29:44;7.80;99.90
54409;DHT22;40315;48.620;9.828;2023-03-31T01:32:34;8.00;99.90
54409;DHT22;40315;48.620;9.828;2023-03-31T01:35:29;8.00;99.90
54409;DHT22;40315;48.620;9.828;2023-03-31T01:38:38;8.10;99.90
54409;DHT22;40315;48.620;9.828;2023-03-31T01:41:22;8.10;99.90
54409;DHT22;40315;48.620;9.828;2023-03-31T01:43:57;8.20;99.90
54409;DHT22;40315;48.620;9.828;2023-03-31T01:49:54;8.20;99.90
54409;DHT22;40315;48.620;9.828;2023-03-31T01:52:26;8.30;99.90
54409;DHT22;40315;48.620;9.828;2023-03-31T01:55:02;8.40;99.90
54409;DHT22;40315;48.620;9.828;2023-03-31T01:57:35;8.30;99.90
54409;DHT22;40315;48.620;9.828;2023-03-31T02:00:08;8.40;99.90
54409;DHT22;40315;48.620;9.828;2023-03-31T02:02:42;8.40;99.90
54409;DHT22;40315;48.620;9.828;2023-03-31T02:05:17;8.40;99.90
54409;DHT22;40315;48.620;9.828;2023-03-31T02:07:48;8.50;99.90
54409;DHT22;40315;48.620;9.828;2023-03-31T02:10:17;8.50;99.90
54409;DHT22;40315;48.620;9.828;2023-03-31T02:12:47;8.60;99.90
54409;DHT22;40315;48.620;9.828;2023-03-31T02:15:19;8.60;99.90
54409;DHT22;40315;48.620;9.828;2023-03-31T02:17:53;8.60;99.90
54409;DHT22;40315;48.620;9.828;2023-03-31T02:20:21;9.30;99.90
54409;DHT22;40315;48.620;9.828;2023-03-31T02:22:52;8.40;99.90
54409;DHT22;40315;48.620;9.828;2023-03-31T02:25:22;8.40;99.90
54409;DHT22;40315;48.620;9.828;2023-03-31T02:27:55;8.50;99.90
54409;DHT22;40315;48.620;9.828;2023-03-31T02:30:28;8.50;99.90
54409;DHT22;40315;48.620;9.828;2023-03-31T02:32:56;8.60;99.90
54409;DHT22;40315;48.620;9.828;2023-03-31T02:35:24;8.60;99.90
54409;DHT22;40315;48.620;9.828;2023-03-31T02:37:56;8.70;99.90
54409;DHT22;40315;48.620;9.828;2023-03-31T02:40:23;8.80;99.90
54409;DHT22;40315;48.620;9.828;2023-03-31T02:42:53;8.90;99.90
54409;DHT22;40315;48.620;9.828;2023-03-31T02:45:43;8.90;99.90
54409;DHT22;40315;48.620;9.828;2023-03-31T02:48:14;9.00;99.90
54409;DHT22;40315;48.620;9.828;2023-03-31T02:51:03;9.00;99.90
54409;DHT22;40315;48.620;9.828;2023-03-31T02:53:40;9.10;99.90
54409;DHT22;40315;48.620;9.828;2023-03-31T02:56:25;9.00;99.90
54409;DHT22;40315;48.620;9.828;2023-03-31T02:59:07;9.30;99.90
54409;DHT22;40315;48.620;9.828;2023-03-31T03:01:46;9.20;99.90
54409;DHT22;40315;48.620;9.828;2023-03-31T03:04:39;9.20;99.90
54409;DHT22;40315;48.620;9.828;2023-03-31T03:07:16;9.20;99.90
54409;DHT22;40315;48.620;9.828;2023-03-31T03:09:56;9.20;99.90
54409;DHT22;40315;48.620;9.828;2023-03-31T03:12:30;9.10;99.90
54409;DHT22;40315;48.620;9.828;2023-03-31T03:15:03;9.20;99.90
54409;DHT22;40315;48.620;9.828;2023-03-31T03:17:35;9.30;99.90
54409;DHT22;40315;48.620;9.828;2023-03-31T03:20:05;9.30;99.90
54409;DHT22;40315;48.620;9.828;2023-03-31T03:22:34;9.30;99.90
54409;DHT22;40315;48.620;9.828;2023-03-31T03:25:02;9.30;99.90
54409;DHT22;40315;48.620;9.828;2023-03-31T03:27:29;9.30;99.90
54409;DHT22;40315;48.620;9.828;2023-03-31T03:30:00;9.30;99.90
54409;DHT22;40315;48.620;9.828;2023-03-31T03:32:29;9.20;99.90
54409;DHT22;40315;48.620;9.828;2023-03-31T03:34:58;9.10;99.90
54409;DHT22;40315;48.620;9.828;2023-03-31T03:37:26;9.20;99.90
54409;DHT22;40315;48.620;9.828;2023-03-31T03:39:53;9.00;99.90
54409;DHT22;40315;48.620;9.828;2023-03-31T03:42:20;9.00;99.90
54409;DHT22;40315;48.620;9.828;2023-03-31T03:44:47;8.90;99.90
54409;DHT22;40315;48.620;9.828;2023-03-31T03:49:42;9.10;99.90
54409;DHT22;40315;48.620;9.828;2023-03-31T03:52:09;9.10;99.90
54409;DHT22;40315;48.620;9.828;2023-03-31T03:54:38;9.30;99.90
54409;DHT22;40315;48.620;9.828;2023-03-31T03:57:05;9.20;99.90
54409;DHT22;40315;48.620;9.828;2023-03-31T03:59:35;9.00;99.90
54409;DHT22;40315;48.620;9.828;2023-03-31T04:02:04;9.00;99.90
54409;DHT22;40315;48.620;9.828;2023-03-31T04:04:33;8.90;99.90
54409;DHT22;40315;48.620;9.828;2023-03-31T04:07:00;8.90;99.90
54409;DHT22;40315;48.620;9.828;2023-03-31T04:09:27;8.90;99.90
54409;DHT22;40315;48.620;9.828;2023-03-31T04:11:56;8.70;99.90
54409;DHT22;40315;48.620;9.828;2023-03-31T04:14:23;8.80;99.90
54409;DHT22;40315;48.620;9.828;2023-03-31T04:16:50;8.80;99.90
54409;DHT22;40315;48.620;9.828;2023-03-31T04:19:20;8.80;99.90
54409;DHT22;40315;48.620;9.828;2023-03-31T04:21:52;8.80;99.90
54409;DHT22;40315;48.620;9.828;2023-03-31T04:24:23;8.90;99.90
54409;DHT22;40315;48.620;9.828;2023-03-31T04:26:55;8.80;99.90
54409;DHT22;40315;48.620;9.828;2023-03-31T04:29:25;8.80;99.90
54409;DHT22;40315;48.620;9.828;2023-03-31T04:31:53;8.80;99.90
54409;DHT22;40315;48.620;9.828;2023-03-31T04:34:24;9.20;99.90
54409;DHT22;40315;48.620;9.828;2023-03-31T04:37:01;8.60;99.90
54409;DHT22;40315;48.620;9.828;2023-03-31T04:39:29;8.60;99.90
54409;DHT22;40315;48.620;9.828;2023-03-31T04:41:57;8.60;99.90
54409;DHT22;40315;48.620;9.828;2023-03-31T04:44:24;8.50;99.90
54409;DHT22;40315;48.620;9.828;2023-03-31T04:46:52;8.50;99.90
54409;DHT22;40315;48.620;9.828;2023-03-31T04:49:21;8.90;99.90
54409;DHT22;40315;48.620;9.828;2023-03-31T04:51:50;9.00;99.90
54409;DHT22;40315;48.620;9.828;2023-03-31T04:54:19;8.40;99.90
54409;DHT22;40315;48.620;9.828;2023-03-31T04:56:46;8.30;99.90
54409;DHT22;40315;48.620;9.828;2023-03-31T04:59:15;8.40;99.90
54409;DHT22;40315;48.620;9.828;2023-03-31T05:01:44;8.40;99.90
54409;DHT22;40315;48.620;9.828;2023-03-31T05:04:11;8.40;99.90
54409;DHT22;40315;48.620;9.828;2023-03-31T05:06:38;8.40;99.90
54409;DHT22;40315;48.620;9.828;2023-03-31T05:09:05;8.50;99.90
54409;DHT22;40315;48.620;9.828;2023-03-31T05:11:35;8.60;99.90
54409;DHT22;40315;48.620;9.828;2023-03-31T05:14:03;8.60;99.90
54409;DHT22;40315;48.620;9.828;2023-03-31T05:16:30;8.50;99.90
54409;DHT22;40315;48.620;9.828;2023-03-31T05:18:57;8.50;99.90
54409;DHT22;40315;48.620;9.828;2023-03-31T05:21:26;8.50;99.90
54409;DHT22;40315;48.620;9.828;2023-03-31T05:23:55;8.50;99.90
54409;DHT22;40315;48.620;9.828;2023-03-31T05:26:22;8.50;99.90
54409;DHT22;40315;48.620;9.828;2023-03-31T05:28:51;8.40;99.90
54409;DHT22;40315;48.620;9.828;2023-03-31T05:31:19;8.40;99.90
54409;DHT22;40315;48.620;9.828;2023-03-31T05:33:46;8.50;99.90
54409;DHT22;40315;48.620;9.828;2023-03-31T05:36:15;8.50;99.90
54409;DHT22;40315;48.620;9.828;2023-03-31T05:38:43;8.50;99.90
54409;DHT22;40315;48.620;9.828;2023-03-31T05:41:10;8.50;99.90
54409;DHT22;40315;48.620;9.828;2023-03-31T05:43:40;8.50;99.90
54409;DHT22;40315;48.620;9.828;2023-03-31T05:46:09;8.50;99.90
54409;DHT22;40315;48.620;9.828;2023-03-31T05:48:38;8.50;99.90
54409;DHT22;40315;48.620;9.828;2023-03-31T05:51:05;8.50;99.90
54409;DHT22;40315;48.620;9.828;2023-03-31T05:53:33;8.60;99.90
54409;DHT22;40315;48.620;9.828;2023-03-31T05:56:04;8.60;99.90
54409;DHT22;40315;48.620;9.828;2023-03-31T05:58:33;8.60;99.90
54409;DHT22;40315;48.620;9.828;2023-03-31T06:01:02;8.60;99.90
54409;DHT22;40315;48.620;9.828;2023-03-31T06:03:33;8.40;99.90
54409;DHT22;40315;48.620;9.828;2023-03-31T06:06:00;8.40;99.90
54409;DHT22;40315;48.620;9.828;2023-03-31T06:08:27;8.40;99.90
54409;DHT22;40315;48.620;9.828;2023-03-31T06:10:54;8.40;99.90
54409;DHT22;40315;48.620;9.828;2023-03-31T06:13:26;8.50;99.90
54409;DHT22;40315;48.620;9.828;2023-03-31T06:15:54;8.40;99.90
54409;DHT22;40315;48.620;9.828;2023-03-31T06:18:22;8.40;99.90
54409;DHT22;40315;48.620;9.828;2023-03-31T06:20:51;8.40;99.90
54409;DHT22;40315;48.620;9.828;2023-03-31T06:23:18;8.50;99.90
54409;DHT22;40315;48.620;9.828;2023-03-31T06:25:45;8.50;99.90
54409;DHT22;40315;48.620;9.828;2023-03-31T06:28:14;8.50;99.90
54409;DHT22;40315;48.620;9.828;2023-03-31T06:30:41;8.50;99.90
54409;DHT22;40315;48.620;9.828;2023-03-31T06:33:11;8.50;99.90
54409;DHT22;40315;48.620;9.828;2023-03-31T06:35:39;8.50;99.90
54409;DHT22;40315;48.620;9.828;2023-03-31T06:38:07;8.60;99.90
54409;DHT22;40315;48.620;9.828;2023-03-31T06:40:37;8.50;99.90
54409;DHT22;40315;48.620;9.828;2023-03-31T06:43:04;8.50;99.90
54409;DHT22;40315;48.620;9.828;2023-03-31T06:45:31;8.50;99.90
54409;DHT22;40315;48.620;9.828;2023-03-31T06:47:58;8.60;99.90
54409;DHT22;40315;48.620;9.828;2023-03-31T06:50:25;8.60;99.90
54409;DHT22;40315;48.620;9.828;2023-03-31T06:52:52;8.70;99.90
54409;DHT22;40315;48.620;9.828;2023-03-31T06:55:21;8.70;99.90
54409;DHT22;40315;48.620;9.828;2023-03-31T06:57:48;8.70;99.90
54409;DHT22;40315;48.620;9.828;2023-03-31T07:00:16;8.80;99.90
54409;DHT22;40315;48.620;9.828;2023-03-31T07:02:43;8.80;99.90
54409;DHT22;40315;48.620;9.828;2023-03-31T07:05:10;8.80;99.90
54409;DHT22;40315;48.620;9.828;2023-03-31T07:07:37;8.80;99.90
54409;DHT22;40315;48.620;9.828;2023-03-31T07:10:05;8.80;99.90
54409;DHT22;40315;48.620;9.828;2023-03-31T07:12:34;8.80;99.90
54409;DHT22;40315;48.620;9.828;2023-03-31T07:15:01;8.80;99.90
54409;DHT22;40315;48.620;9.828;2023-03-31T07:17:28;8.80;99.90
54409;DHT22;40315;48.620;9.828;2023-03-31T07:19:57;8.80;99.90
54409;DHT22;40315;48.620;9.828;2023-03-31T07:22:27;8.80;99.90
54409;DHT22;40315;48.620;9.828;2023-03-31T07:24:54;8.80;99.90
54409;DHT22;40315;48.620;9.828;2023-03-31T07:27:21;8.90;99.90
54409;DHT22;40315;48.620;9.828;2023-03-31T07:29:49;9.00;99.90
54409;DHT22;40315;48.620;9.828;2023-03-31T07:32:16;9.00;99.90
54409;DHT22;40315;48.620;9.828;2023-03-31T07:34:43;9.00;99.90
54409;DHT22;40315;48.620;9.828;2023-03-31T07:37:11;8.90;99.90
54409;DHT22;40315;48.620;9.828;2023-03-31T07:39:38;9.00;99.90
54409;DHT22;40315;48.620;9.828;2023-03-31T07:42:05;9.30;99.90
54409;DHT22;40315;48.620;9.828;2023-03-31T07:44:32;9.40;99.90
54409;DHT22;40315;48.620;9.828;2023-03-31T07:49:31;9.40;99.90
54409;DHT22;40315;48.620;9.828;2023-03-31T07:52:00;9.40;99.90
54409;DHT22;40315;48.620;9.828;2023-03-31T07:54:30;9.40;99.90
54409;DHT22;40315;48.620;9.828;2023-03-31T07:56:59;9.50;99.90
54409;DHT22;40315;48.620;9.828;2023-03-31T07:59:29;9.60;99.90
54409;DHT22;40315;48.620;9.828;2023-03-31T08:01:56;9.80;99.90
54409;DHT22;40315;48.620;9.828;2023-03-31T08:04:25;9.90;99.90
54409;DHT22;40315;48.620;9.828;2023-03-31T08:06:52;10.00;99.90
54409;DHT22;40315;48.620;9.828;2023-03-31T08:09:21;10.10;99.90
54409;DHT22;40315;48.620;9.828;2023-03-31T08:11:49;10.20;99.90
54409;DHT22;40315;48.620;9.828;2023-03-31T08:14:16;10.30;99.90
54409;DHT22;40315;48.620;9.828;2023-03-31T08:16:43;10.30;99.90
54409;DHT22;40315;48.620;9.828;2023-03-31T08:19:10;10.30;99.90
54409;DHT22;40315;48.620;9.828;2023-03-31T08:21:38;10.30;99.90
54409;DHT22;40315;48.620;9.828;2023-03-31T08:24:05;10.30;99.90
54409;DHT22;40315;48.620;9.828;2023-03-31T08:26:34;10.40;99.90
54409;DHT22;40315;48.620;9.828;2023-03-31T08:29:01;10.50;99.90
54409;DHT22;40315;48.620;9.828;2023-03-31T08:31:28;10.60;99.90
54409;DHT22;40315;48.620;9.828;2023-03-31T08:33:58;10.80;99.90
54409;DHT22;40315;48.620;9.828;2023-03-31T08:36:29;11.40;99.90
54409;DHT22;40315;48.620;9.828;2023-03-31T08:41:36;12.00;99.90
54409;DHT22;40315;48.620;9.828;2023-03-31T08:44:09;12.30;99.90
54409;DHT22;40315;48.620;9.828;2023-03-31T08:46:40;12.50;99.90
54409;DHT22;40315;48.620;9.828;2023-03-31T08:49:13;12.70;99.90
54409;DHT22;40315;48.620;9.828;2023-03-31T08:51:46;12.90;99.90
54409;DHT22;40315;48.620;9.828;2023-03-31T08:54:18;13.00;99.90
54409;DHT22;40315;48.620;9.828;2023-03-31T08:56:48;13.20;99.90
54409;DHT22;40315;48.620;9.828;2023-03-31T08:59:20;13.30;99.90
54409;DHT22;40315;48.620;9.828;2023-03-31T09:01:58;13.50;99.90
54409;DHT22;40315;48.620;9.828;2023-03-31T09:04:49;13.60;99.90
54409;DHT22;40315;48.620;9.828;2023-03-31T09:07:27;13.70;99.90
54409;DHT22;40315;48.620;9.828;2023-03-31T09:10:02;13.50;99.90
54409;DHT22;40315;48.620;9.828;2023-03-31T09:12:36;14.00;99.90
54409;DHT22;40315;48.620;9.828;2023-03-31T09:15:09;14.10;99.90
54409;DHT22;40315;48.620;9.828;2023-03-31T09:17:40;14.30;99.90
54409;DHT22;40315;48.620;9.828;2023-03-31T09:20:12;14.50;99.90
54409;DHT22;40315;48.620;9.828;2023-03-31T09:22:44;14.60;99.90
54409;DHT22;40315;48.620;9.828;2023-03-31T09:25:20;14.40;99.90
54409;DHT22;40315;48.620;9.828;2023-03-31T09:27:49;14.40;99.90
54409;DHT22;40315;48.620;9.828;2023-03-31T09:30:21;13.70;99.90
54409;DHT22;40315;48.620;9.828;2023-03-31T09:32:53;13.80;99.90
54409;DHT22;40315;48.620;9.828;2023-03-31T09:35:26;13.90;99.90
54409;DHT22;40315;48.620;9.828;2023-03-31T09:37:57;14.00;99.90
54409;DHT22;40315;48.620;9.828;2023-03-31T09:40:26;13.90;99.90
54409;DHT22;40315;48.620;9.828;2023-03-31T09:42:57;14.00;99.90
54409;DHT22;40315;48.620;9.828;2023-03-31T09:45:25;13.90;99.90
54409;DHT22;40315;48.620;9.828;2023-03-31T09:47:54;13.70;99.90
54409;DHT22;40315;48.620;9.828;2023-03-31T09:50:23;13.60;99.90
54409;DHT22;40315;48.620;9.828;2023-03-31T09:52:52;13.80;99.90
54409;DHT22;40315;48.620;9.828;2023-03-31T09:55:23;13.90;99.90
54409;DHT22;40315;48.620;9.828;2023-03-31T09:57:52;14.20;99.90
54409;DHT22;40315;48.620;9.828;2023-03-31T10:00:21;14.60;99.90
54409;DHT22;40315;48.620;9.828;2023-03-31T10:02:49;14.80;99.90
54409;DHT22;40315;48.620;9.828;2023-03-31T10:05:30;15.00;99.90
54409;DHT22;40315;48.620;9.828;2023-03-31T10:08:29;14.80;99.90
54409;DHT22;40315;48.620;9.828;2023-03-31T10:11:06;14.90;99.90
54409;DHT22;40315;48.620;9.828;2023-03-31T10:13:42;15.10;99.90
54409;DHT22;40315;48.620;9.828;2023-03-31T10:16:13;15.10;99.90
54409;DHT22;40315;48.620;9.828;2023-03-31T10:18:42;14.70;99.90
54409;DHT22;40315;48.620;9.828;2023-03-31T10:21:19;14.70;99.90
54409;DHT22;40315;48.620;9.828;2023-03-31T10:23:48;14.70;99.90
54409;DHT22;40315;48.620;9.828;2023-03-31T10:26:18;14.90;99.90
54409;DHT22;40315;48.620;9.828;2023-03-31T10:28:47;15.30;99.90
54409;DHT22;40315;48.620;9.828;2023-03-31T10:31:18;15.70;99.90
54409;DHT22;40315;48.620;9.828;2023-03-31T10:33:47;15.80;99.90
54409;DHT22;40315;48.620;9.828;2023-03-31T10:36:20;15.60;99.90
54409;DHT22;40315;48.620;9.828;2023-03-31T10:38:49;15.40;99.90
54409;DHT22;40315;48.620;9.828;2023-03-31T10:41:21;15.20;99.90
54409;DHT22;40315;48.620;9.828;2023-03-31T10:43:52;14.80;99.90
54409;DHT22;40315;48.620;9.828;2023-03-31T10:46:38;15.00;99.90
54409;DHT22;40315;48.620;9.828;2023-03-31T10:49:13;14.90;99.90
54409;DHT22;40315;48.620;9.828;2023-03-31T10:51:48;14.50;99.90
54409;DHT22;40315;48.620;9.828;2023-03-31T10:54:15;15.10;99.90
54409;DHT22;40315;48.620;9.828;2023-03-31T10:56:46;15.10;99.90
54409;DHT22;40315;48.620;9.828;2023-03-31T10:59:27;15.10;99.90
54409;DHT22;40315;48.620;9.828;2023-03-31T11:02:13;14.40;99.90
54409;DHT22;40315;48.620;9.828;2023-03-31T11:04:51;14.70;99.90
54409;DHT22;40315;48.620;9.828;2023-03-31T11:07:36;14.70;99.90
54409;DHT22;40315;48.620;9.828;2023-03-31T11:10:20;14.50;99.90
54409;DHT22;40315;48.620;9.828;2023-03-31T11:12:58;14.60;99.90
54409;DHT22;40315;48.620;9.828;2023-03-31T11:15:32;14.60;99.90
54409;DHT22;40315;48.620;9.828;2023-03-31T11:18:16;14.50;99.90
54409;DHT22;40315;48.620;9.828;2023-03-31T11:20:53;15.20;99.90
54409;DHT22;40315;48.620;9.828;2023-03-31T11:23:31;15.40;99.90
54409;DHT22;40315;48.620;9.828;2023-03-31T11:26:06;15.90;99.90
54409;DHT22;40315;48.620;9.828;2023-03-31T11:28:59;16.30;99.90
54409;DHT22;40315;48.620;9.828;2023-03-31T11:31:38;16.60;99.90
54409;DHT22;40315;48.620;9.828;2023-03-31T11:34:17;16.10;99.90
54409;DHT22;40315;48.620;9.828;2023-03-31T11:39:52;15.30;99.90
54409;DHT22;40315;48.620;9.828;2023-03-31T11:42:25;15.40;99.90
54409;DHT22;40315;48.620;9.828;2023-03-31T11:44:57;15.30;99.90
54409;DHT22;40315;48.620;9.828;2023-03-31T11:47:30;15.30;99.90
54409;DHT22;40315;48.620;9.828;2023-03-31T11:50:02;15.10;99.90
54409;DHT22;40315;48.620;9.828;2023-03-31T11:52:32;15.20;99.90
54409;DHT22;40315;48.620;9.828;2023-03-31T11:55:06;15.10;99.90
54409;DHT22;40315;48.620;9.828;2023-03-31T11:57:43;13.20;99.90
54409;DHT22;40315;48.620;9.828;2023-03-31T12:00:16;12.00;99.90
54409;DHT22;40315;48.620;9.828;2023-03-31T12:02:53;10.00;99.90
54409;DHT22;40315;48.620;9.828;2023-03-31T12:05:25;9.30;99.90
54409;DHT22;40315;48.620;9.828;2023-03-31T12:07:57;9.10;99.90
54409;DHT22;40315;48.620;9.828;2023-03-31T12:10:31;8.90;99.90
54409;DHT22;40315;48.620;9.828;2023-03-31T12:13:06;8.90;99.90
54409;DHT22;40315;48.620;9.828;2023-03-31T12:15:38;8.90;99.90
54409;DHT22;40315;48.620;9.828;2023-03-31T12:18:13;9.00;99.90
54409;DHT22;40315;48.620;9.828;2023-03-31T12:20:43;9.20;99.90
54409;DHT22;40315;48.620;9.828;2023-03-31T12:23:14;9.60;99.90
54409;DHT22;40315;48.620;9.828;2023-03-31T12:25:50;9.80;99.90
54409;DHT22;40315;48.620;9.828;2023-03-31T12:28:18;9.80;99.90
54409;DHT22;40315;48.620;9.828;2023-03-31T12:30:46;10.00;99.90
54409;DHT22;40315;48.620;9.828;2023-03-31T12:33:18;10.20;99.90
54409;DHT22;40315;48.620;9.828;2023-03-31T12:35:56;10.50;99.90
54409;DHT22;40315;48.620;9.828;2023-03-31T12:38:36;10.50;99.90
54409;DHT22;40315;48.620;9.828;2023-03-31T12:41:10;10.70;99.90
54409;DHT22;40315;48.620;9.828;2023-03-31T12:43:54;11.20;99.90
54409;DHT22;40315;48.620;9.828;2023-03-31T12:46:43;11.30;99.90
54409;DHT22;40315;48.620;9.828;2023-03-31T12:49:38;11.60;99.90
54409;DHT22;40315;48.620;9.828;2023-03-31T12:52:13;11.70;99.90
54409;DHT22;40315;48.620;9.828;2023-03-31T12:55:03;12.10;99.90
54409;DHT22;40315;48.620;9.828;2023-03-31T12:57:35;12.30;99.90
54409;DHT22;40315;48.620;9.828;2023-03-31T13:00:23;12.70;99.90
54409;DHT22;40315;48.620;9.828;2023-03-31T13:06:00;13.20;99.90
54409;DHT22;40315;48.620;9.828;2023-03-31T13:08:53;13.60;99.90
54409;DHT22;40315;48.620;9.828;2023-03-31T13:11:38;13.60;99.90
54409;DHT22;40315;48.620;9.828;2023-03-31T13:14:13;13.90;99.90
54409;DHT22;40315;48.620;9.828;2023-03-31T13:16:42;14.30;99.90
54409;DHT22;40315;48.620;9.828;2023-03-31T13:19:26;14.10;99.90
54409;DHT22;40315;48.620;9.828;2023-03-31T13:21:56;14.10;99.90
54409;DHT22;40315;48.620;9.828;2023-03-31T13:24:24;14.00;99.90
54409;DHT22;40315;48.620;9.828;2023-03-31T13:26:53;14.50;99.90
54409;DHT22;40315;48.620;9.828;2023-03-31T13:29:23;14.50;99.90
54409;DHT22;40315;48.620;9.828;2023-03-31T13:32:17;14.70;99.90
54409;DHT22;40315;48.620;9.828;2023-03-31T13:34:49;14.60;99.90
54409;DHT22;40315;48.620;9.828;2023-03-31T13:37:36;14.80;99.90
54409;DHT22;40315;48.620;9.828;2023-03-31T13:40:31;14.90;99.90
54409;DHT22;40315;48.620;9.828;2023-03-31T13:43:35;15.00;99.90
54409;DHT22;40315;48.620;9.828;2023-03-31T13:46:19;14.30;99.90
54409;DHT22;40315;48.620;9.828;2023-03-31T13:48:56;14.20;99.90
54409;DHT22;40315;48.620;9.828;2023-03-31T13:51:36;14.30;99.90
54409;DHT22;40315;48.620;9.828;2023-03-31T13:57:46;14.10;99.90
54409;DHT22;40315;48.620;9.828;2023-03-31T14:00:33;13.90;99.90
54409;DHT22;40315;48.620;9.828;2023-03-31T14:06:10;13.80;99.90
54409;DHT22;40315;48.620;9.828;2023-03-31T14:08:47;13.90;99.90
54409;DHT22;40315;48.620;9.828;2023-03-31T14:11:21;14.10;99.90
54409;DHT22;40315;48.620;9.828;2023-03-31T14:14:02;14.10;99.90
54409;DHT22;40315;48.620;9.828;2023-03-31T14:16:33;13.70;99.90
54409;DHT22;40315;48.620;9.828;2023-03-31T14:19:26;13.30;99.90
54409;DHT22;40315;48.620;9.828;2023-03-31T14:22:00;13.20;99.90
54409;DHT22;40315;48.620;9.828;2023-03-31T14:24:36;12.80;99.90
54409;DHT22;40315;48.620;9.828;2023-03-31T14:27:13;11.40;99.90
54409;DHT22;40315;48.620;9.828;2023-03-31T14:29:47;10.30;99.90
54409;DHT22;40315;48.620;9.828;2023-03-31T14:32:28;10.10;99.90
54409;DHT22;40315;48.620;9.828;2023-03-31T14:35:08;10.20;99.90
54409;DHT22;40315;48.620;9.828;2023-03-31T14:37:40;10.40;99.90
54409;DHT22;40315;48.620;9.828;2023-03-31T14:40:13;10.30;99.90
54409;DHT22;40315;48.620;9.828;2023-03-31T14:42:44;10.50;99.90
54409;DHT22;40315;48.620;9.828;2023-03-31T14:45:17;10.90;99.90
54409;DHT22;40315;48.620;9.828;2023-03-31T14:47:53;11.30;99.90
54409;DHT22;40315;48.620;9.828;2023-03-31T14:50:28;12.00;99.90
54409;DHT22;40315;48.620;9.828;2023-03-31T14:52:56;11.90;99.90
54409;DHT22;40315;48.620;9.828;2023-03-31T14:55:28;12.20;99.90
54409;DHT22;40315;48.620;9.828;2023-03-31T14:58:00;11.10;99.90
54409;DHT22;40315;48.620;9.828;2023-03-31T15:00:31;11.90;99.90
54409;DHT22;40315;48.620;9.828;2023-03-31T15:03:05;11.40;99.90
54409;DHT22;40315;48.620;9.828;2023-03-31T15:05:35;11.50;99.90
54409;DHT22;40315;48.620;9.828;2023-03-31T15:08:04;11.70;99.90
54409;DHT22;40315;48.620;9.828;2023-03-31T15:10:38;11.70;99.90
54409;DHT22;40315;48.620;9.828;2023-03-31T15:13:14;11.80;99.90
54409;DHT22;40315;48.620;9.828;2023-03-31T15:15:42;11.90;99.90
54409;DHT22;40315;48.620;9.828;2023-03-31T15:18:11;11.90;99.90
54409;DHT22;40315;48.620;9.828;2023-03-31T15:20:39;11.80;99.90
54409;DHT22;40315;48.620;9.828;2023-03-31T15:23:19;11.70;99.90
54409;DHT22;40315;48.620;9.828;2023-03-31T15:25:52;11.70;99.90
54409;DHT22;40315;48.620;9.828;2023-03-31T15:28:23;11.80;99.90
54409;DHT22;40315;48.620;9.828;2023-03-31T15:30:53;12.10;99.90
54409;DHT22;40315;48.620;9.828;2023-03-31T15:33:22;12.40;99.90
54409;DHT22;40315;48.620;9.828;2023-03-31T15:35:56;12.40;99.90
54409;DHT22;40315;48.620;9.828;2023-03-31T15:38:27;12.40;99.90
54409;DHT22;40315;48.620;9.828;2023-03-31T15:40:57;12.20;99.90
54409;DHT22;40315;48.620;9.828;2023-03-31T15:43:30;12.10;99.90
54409;DHT22;40315;48.620;9.828;2023-03-31T15:45:58;12.00;99.90
54409;DHT22;40315;48.620;9.828;2023-03-31T15:48:28;12.10;99.90
54409;DHT22;40315;48.620;9.828;2023-03-31T15:51:03;12.20;99.90
54409;DHT22;40315;48.620;9.828;2023-03-31T15:53:35;12.10;99.90
54409;DHT22;40315;48.620;9.828;2023-03-31T15:56:05;12.30;99.90
54409;DHT22;40315;48.620;9.828;2023-03-31T15:59:03;12.30;99.90
54409;DHT22;40315;48.620;9.828;2023-03-31T16:01:32;12.20;99.90
54409;DHT22;40315;48.620;9.828;2023-03-31T16:04:04;12.20;99.90
54409;DHT22;40315;48.620;9.828;2023-03-31T16:06:41;12.20;99.90
54409;DHT22;40315;48.620;9.828;2023-03-31T16:09:11;12.00;99.90
54409;DHT22;40315;48.620;9.828;2023-03-31T16:11:43;11.90;99.90
54409;DHT22;40315;48.620;9.828;2023-03-31T16:14:15;11.80;99.90
54409;DHT22;40315;48.620;9.828;2023-03-31T16:16:49;11.80;99.90
54409;DHT22;40315;48.620;9.828;2023-03-31T16:19:19;11.60;99.90
54409;DHT22;40315;48.620;9.828;2023-03-31T16:21:52;11.60;99.90
54409;DHT22;40315;48.620;9.828;2023-03-31T16:24:28;11.50;99.90
54409;DHT22;40315;48.620;9.828;2023-03-31T16:26:59;11.40;99.90
54409;DHT22;40315;48.620;9.828;2023-03-31T16:29:32;11.40;99.90
54409;DHT22;40315;48.620;9.828;2023-03-31T16:32:10;11.30;99.90
54409;DHT22;40315;48.620;9.828;2023-03-31T16:34:54;11.20;99.90
54409;DHT22;40315;48.620;9.828;2023-03-31T16:37:21;11.70;99.90
54409;DHT22;40315;48.620;9.828;2023-03-31T16:39:49;11.10;99.90